Airport details for: EPWA (Poland)

Metar

EPWA 241130Z 35010KT 9999 SCT039 12/M00 Q1027 NOSIG

General details

ICAO: EPWA
IATA: WAW
Name (city): Chopin
Major:
Country: Poland
vACC: vACC Poland
Description:

Warsaw Chopin Airport (IATA: WAW, ICAO: EPWA) – the largest Polish airport, operating since 1934. Originally known as ‘Warszawa Okecie’, since January 2010 its official name is ‘Warsaw Chopin Airport’. The port is located about 8 kilometres to the south-west of the centre of Warsaw, the Capital of Poland, and covers the area of more than 500 hectares.

The airport handles almost 50% of the total passenger traffic in Poland , which amounts to approximately 10 million passengers per year. The airport offers connections to North America, Africa, Asia and Europe. The most popular European destinations include London, Paris, Frankfurt and Amsterdam. Domestic flights offer connections to Wroclaw, Krakow and Gdansk.

Scenery links:
FS9 scenery: Download
FSX/P3D scenery: Download
XP scenery:
Elevation: 362 ft.
Transition altitude: 6500 ft.
MSA: 12100 ft.
Latitude: 52.165833
Longitude: 20.967222
EPWA Charts
EPWA Notams
EPWA Online stations

Runways

Number Course Length Elevation Lat Lon ILS ILS freq ILS FAC GP
11 110° 9186ft / 2800 m 362ft 52.171475 20.946714 109.9 109° 3.0°
15 147° 12106ft / 3690 m 352ft 52.178572 20.955909 - - 3.0°
29 290° 9186ft / 2800 m 346ft 52.162869 20.977372 - - 3.0°
33 327° 12106ft / 3690 m 354ft 52.154589 20.976875 110.3 327° 3.0°